Time;durP1;ratioP1;P1;durP2;ratioP2;P2;SDS_P1;SDS_P2;PMS_P1;PMS_P2;Temp;Humidity;BMP_temperature;BMP_pressure;BME280_temperature;BME280_humidity;BME280_pressure;Samples;Min_cycle;Max_cycle;Signal;HPM_P1;HPM_P2
2023/07/31 00:01:03;;;;;;;7.47;2.00;;;17.10;69.10;;;18.86;49.59;97647.59;5013238;28;20493;-55
2023/07/31 00:03:30;;;;;;;2.55;1.58;;;17.00;69.70;;;18.81;49.72;97654.66;5012500;28;20073;-55
2023/07/31 00:05:58;;;;;;;3.60;1.60;;;16.90;70.30;;;18.71;50.16;97660.47;5012110;28;20038;-56
2023/07/31 00:08:25;;;;;;;6.30;1.85;;;16.80;71.00;;;18.63;50.22;97656.16;5013029;28;20046;-55
2023/07/31 00:10:53;;;;;;;2.20;1.70;;;16.70;71.60;;;18.54;50.55;97659.28;5013445;28;20042;-56
2023/07/31 00:13:21;;;;;;;3.75;1.95;;;16.60;72.20;;;18.50;50.74;97659.69;5013640;28;20034;-53
2023/07/31 00:15:48;;;;;;;4.80;1.80;;;16.60;72.40;;;18.37;51.07;97651.63;5011996;28;20038;-53
2023/07/31 00:18:16;;;;;;;5.63;2.15;;;16.50;73.30;;;18.30;51.22;97657.06;5012952;28;20050;-54
2023/07/31 00:20:44;;;;;;;5.10;2.13;;;16.40;73.70;;;18.28;51.30;97663.69;5013182;28;20508;-53
2023/07/31 00:23:11;;;;;;;6.07;2.45;;;16.40;73.70;;;18.30;51.01;97669.72;5011971;28;20042;-55
2023/07/31 00:25:39;;;;;;;2.55;1.88;;;16.40;73.30;;;18.29;51.12;97668.03;5011403;28;20041;-56
2023/07/31 00:28:07;;;;;;;3.97;1.85;;;16.50;73.40;;;18.28;51.37;97663.69;5011036;28;20050;-53
2023/07/31 00:30:35;;;;;;;4.10;2.05;;;16.50;73.40;;;18.30;51.22;97667.84;5012850;28;20042;-54
2023/07/31 00:33:02;;;;;;;6.07;2.20;;;16.50;73.20;;;18.32;51.12;97667.63;5011882;28;20056;-54
2023/07/31 00:35:30;;;;;;;3.88;2.33;;;16.50;73.10;;;18.30;51.13;97664.31;5011065;28;20498;-56
2023/07/31 00:37:59;;;;;;;2.85;1.85;;;16.40;73.10;;;18.28;51.57;97666.38;5011166;28;20049;-55
2023/07/31 00:40:26;;;;;;;6.10;1.63;;;16.50;73.50;;;18.26;51.18;97665.75;5011470;28;20046;-56
2023/07/31 00:42:54;;;;;;;4.57;2.45;;;16.40;73.50;;;18.25;51.42;97667.63;5012710;28;20053;-52
2023/07/31 00:45:23;;;;;;;5.38;2.08;;;16.40;73.80;;;18.22;51.49;97669.91;5011114;28;20437;-56
2023/07/31 00:47:51;;;;;;;4.40;2.00;;;16.30;73.90;;;18.20;51.50;97669.28;4987805;28;20387;-57
2023/07/31 00:50:19;;;;;;;4.28;1.90;;;16.30;74.10;;;18.15;51.63;97661.84;4994054;28;20054;-54
2023/07/31 00:52:46;;;;;;;5.80;1.80;;;16.30;74.60;;;18.08;51.79;97651.06;5011209;28;20486;-54
2023/07/31 00:55:14;;;;;;;4.93;2.00;;;16.20;74.80;;;18.03;52.06;97648.19;4993772;28;20081;-55
2023/07/31 00:57:42;;;;;;;3.53;2.08;;;16.10;75.50;;;18.00;52.01;97651.28;5010897;28;20057;-54
2023/07/31 01:00:12;;;;;;;2.67;1.90;;;16.10;75.90;;;17.94;52.21;97654.00;5012240;28;20414;-54
2023/07/31 01:02:40;;;;;;;3.72;1.95;;;16.00;76.30;;;17.86;52.55;97645.09;5019105;28;20060;-54
2023/07/31 01:05:08;;;;;;;7.15;2.55;;;15.90;77.10;;;17.81;52.57;97649.41;4994691;28;20080;-54
2023/07/31 01:07:51;;;;;;;2.53;1.65;;;15.90;77.50;;;17.79;52.54;97643.41;5011854;28;20042;-55
2023/07/31 01:10:26;;;;;;;5.22;1.90;;;15.90;77.00;;;17.75;52.46;97639.47;5010906;28;20041;-56
2023/07/31 01:12:56;;;;;;;5.20;2.25;;;16.00;75.70;;;17.80;52.58;97634.28;5020767;28;20046;-54
2023/07/31 01:15:23;;;;;;;6.90;1.88;;;16.10;75.10;;;17.84;52.48;97639.06;5011009;28;20112;-51
2023/07/31 01:17:51;;;;;;;4.45;1.90;;;16.20;74.90;;;17.93;52.57;97642.38;4993787;28;20080;-54
2023/07/31 01:20:24;;;;;;;4.15;2.00;;;16.30;75.10;;;17.98;52.52;97625.59;5011934;28;20489;-54
2023/07/31 01:23:21;;;;;;;5.55;2.47;;;16.30;75.70;;;17.98;52.60;97626.44;4995003;28;20052;-51
2023/07/31 01:26:22;;;;;;;2.80;1.67;;;16.20;75.70;;;17.94;52.63;97627.88;5010584;28;20064;-51
2023/07/31 01:29:17;;;;;;;2.33;1.80;;;16.20;76.10;;;17.90;52.76;97624.78;5006940;28;20038;-54
2023/07/31 01:31:49;;;;;;;2.97;1.50;;;16.20;76.50;;;17.93;53.01;97626.22;4989950;28;20072;-54
2023/07/31 01:34:19;;;;;;;5.63;2.03;;;16.20;76.60;;;17.92;52.79;97626.44;4994737;28;20061;-54
2023/07/31 01:36:47;;;;;;;5.38;3.05;;;16.10;77.10;;;17.89;53.12;97619.59;4994358;28;20410;-53
2023/07/31 01:39:15;;;;;;;3.63;1.60;;;16.10;77.00;;;17.88;53.19;97612.56;5010038;28;20050;-52
2023/07/31 01:41:43;;;;;;;4.70;1.92;;;16.10;77.50;;;17.80;53.38;97610.88;5010376;28;20057;-52
2023/07/31 01:44:10;;;;;;;2.80;1.77;;;16.00;78.00;;;17.68;53.61;97615.22;5010361;28;20053;-52
2023/07/31 01:46:38;;;;;;;4.90;2.03;;;15.90;78.30;;;17.65;53.83;97608.41;5011638;28;20049;-50
2023/07/31 01:49:06;;;;;;;3.83;1.73;;;15.90;78.10;;;17.66;53.58;97604.69;5026517;28;20056;-52
2023/07/31 01:51:34;;;;;;;5.38;1.80;;;16.00;78.20;;;17.77;53.22;97599.69;4994399;28;20041;-53
2023/07/31 01:54:02;;;;;;;3.28;1.80;;;16.10;76.20;;;17.78;53.08;97604.88;5011086;28;20498;-51
2023/07/31 01:56:30;;;;;;;3.30;2.45;;;16.20;76.10;;;17.86;52.59;97596.59;4993959;28;20053;-53
2023/07/31 01:58:57;;;;;;;3.85;1.67;;;16.30;74.30;;;17.89;52.67;97600.75;5009821;28;20068;-53
2023/07/31 02:01:25;;;;;;;2.75;1.73;;;16.40;73.80;;;17.92;52.76;97605.72;5011487;28;20053;-53
2023/07/31 02:03:53;;;;;;;4.22;1.90;;;16.40;74.30;;;17.90;52.70;97592.47;5010352;28;20042;-51
2023/07/31 02:06:23;;;;;;;2.45;1.92;;;16.30;74.80;;;17.87;52.71;97592.91;5011325;28;20401;-52
2023/07/31 02:08:50;;;;;;;4.20;2.33;;;16.30;75.00;;;17.88;52.69;97593.72;5009358;28;20053;-54
2023/07/31 02:11:18;;;;;;;3.42;1.90;;;16.20;75.20;;;17.88;52.66;97588.31;5011455;28;20413;-52
2023/07/31 02:13:45;;;;;;;3.50;1.67;;;16.20;75.00;;;17.93;52.36;97593.91;5026915;28;20413;-53
2023/07/31 02:16:13;;;;;;;4.00;2.20;;;16.30;74.40;;;17.97;52.16;97586.22;5011437;28;20530;-52
2023/07/31 02:18:41;;;;;;;3.05;2.10;;;16.40;73.50;;;17.93;52.10;97575.03;5018006;28;20054;-50
2023/07/31 02:21:08;;;;;;;3.47;1.90;;;16.40;73.10;;;17.93;52.15;97580.44;5010119;28;20054;-54
2023/07/31 02:23:36;;;;;;;4.57;2.95;;;16.40;72.80;;;17.95;51.89;97572.16;5011346;28;20046;-52
2023/07/31 02:26:04;;;;;;;2.50;2.22;;;16.50;72.40;;;17.96;51.88;97568.44;5009771;28;20058;-54
2023/07/31 02:28:31;;;;;;;4.22;2.15;;;16.50;72.30;;;18.01;51.86;97563.22;5009492;28;20038;-54
2023/07/31 02:31:00;;;;;;;4.72;2.00;;;16.50;72.20;;;18.00;51.67;97564.28;5013592;28;20056;-52
2023/07/31 02:33:28;;;;;;;4.28;1.90;;;16.50;71.70;;;17.96;51.64;97558.47;5030584;28;20068;-52
2023/07/31 02:35:55;;;;;;;4.22;2.50;;;16.50;71.80;;;18.02;51.79;97556.81;5014589;28;20042;-49
2023/07/31 02:38:26;;;;;;;4.05;1.83;;;16.50;72.10;;;18.01;51.93;97553.31;5014831;28;20050;-51
2023/07/31 02:40:54;;;;;;;4.50;2.20;;;16.40;72.90;;;18.01;51.87;97552.44;5013954;28;20523;-55
2023/07/31 02:43:21;;;;;;;3.47;1.92;;;16.30;73.40;;;18.04;51.83;97554.72;5013706;28;20050;-55
2023/07/31 02:45:53;;;;;;;3.13;1.85;;;16.40;73.20;;;18.03;51.60;97548.53;5013723;28;20053;-55
2023/07/31 02:48:20;;;;;;;3.42;1.98;;;16.30;73.30;;;17.96;51.73;97547.72;5012536;28;20050;-53
2023/07/31 02:50:48;;;;;;;3.63;2.08;;;16.20;73.50;;;17.90;51.74;97551.25;5012449;28;20056;-54
2023/07/31 02:53:16;;;;;;;4.15;2.45;;;16.10;73.60;;;17.81;52.12;97547.91;5013425;28;20076;-55
2023/07/31 02:55:43;;;;;;;2.50;1.77;;;16.10;73.90;;;17.78;51.81;97551.03;5014626;28;20045;-52
2023/07/31 02:58:11;;;;;;;4.32;1.70;;;16.00;74.20;;;17.71;52.15;97544.81;5012571;28;20073;-55
2023/07/31 03:00:43;;;;;;;5.68;2.10;;;16.00;74.40;;;17.75;52.11;97548.75;5013614;28;20502;-55
2023/07/31 03:03:11;;;;;;;3.90;1.45;;;16.00;74.20;;;17.77;52.24;97554.75;5014457;28;20042;-55
2023/07/31 03:05:39;;;;;;;5.10;2.45;;;16.00;74.30;;;17.74;52.34;97560.56;5005466;28;20056;-54
2023/07/31 03:08:06;;;;;;;5.13;1.98;;;16.00;74.50;;;17.68;52.43;97559.53;5029153;28;20049;-55
2023/07/31 03:10:34;;;;;;;3.10;2.17;;;16.00;74.60;;;17.72;52.45;97554.56;5014198;28;20049;-52
2023/07/31 03:13:01;;;;;;;3.85;1.92;;;16.00;74.70;;;17.73;52.35;97556.19;5029794;28;20049;-55
2023/07/31 03:15:29;;;;;;;2.60;1.67;;;16.00;74.40;;;17.77;52.15;97552.06;5012532;28;20061;-52
2023/07/31 03:17:57;;;;;;;3.05;1.98;;;16.10;73.80;;;17.74;52.27;97555.19;5012439;28;20072;-54
2023/07/31 03:20:24;;;;;;;3.70;2.38;;;16.20;73.30;;;17.81;51.88;97565.94;5012799;28;20508;-56
2023/07/31 03:22:52;;;;;;;4.47;2.70;;;16.20;73.00;;;17.76;51.86;97557.63;5029673;28;20045;-53
2023/07/31 03:25:19;;;;;;;5.70;2.03;;;16.20;72.50;;;17.81;51.95;97566.75;5013114;28;20050;-55
2023/07/31 03:27:47;;;;;;;2.85;1.85;;;16.20;72.10;;;17.81;51.87;97564.06;5013099;28;20037;-52
2023/07/31 03:30:15;;;;;;;4.28;2.67;;;16.30;72.30;;;17.85;51.90;97559.13;5014011;28;20064;-54
2023/07/31 03:32:42;;;;;;;5.53;2.10;;;16.30;72.40;;;17.78;52.00;97559.09;5013176;28;20046;-53
2023/07/31 03:35:10;;;;;;;3.47;1.88;;;16.30;72.70;;;17.78;51.87;97553.72;5013814;28;20057;-55
2023/07/31 03:37:37;;;;;;;5.35;2.35;;;16.20;72.60;;;17.68;52.21;97562.22;5013360;28;20049;-55
2023/07/31 03:40:06;;;;;;;6.22;1.63;;;16.20;73.00;;;17.70;52.32;97559.34;5013584;28;20501;-54
2023/07/31 03:42:34;;;;;;;4.93;2.10;;;16.20;73.00;;;17.68;52.17;97562.22;5013707;28;20049;-55
2023/07/31 03:45:02;;;;;;;4.82;2.83;;;16.20;72.90;;;17.70;52.33;97564.72;5012212;28;20050;-53
2023/07/31 03:47:30;;;;;;;4.72;2.30;;;16.20;73.00;;;17.71;52.28;97561.78;5027882;28;20061;-56
2023/07/31 03:49:58;;;;;;;2.28;1.52;;;16.20;72.70;;;17.68;52.17;97564.91;4993688;28;20049;-55
2023/07/31 03:52:25;;;;;;;4.43;1.98;;;16.20;72.70;;;17.75;52.07;97562.19;5011766;28;20050;-52
2023/07/31 03:54:53;;;;;;;4.93;2.05;;;16.20;72.30;;;17.75;51.97;97559.50;5013595;28;20034;-53
2023/07/31 03:57:20;;;;;;;3.72;2.22;;;16.20;72.10;;;17.81;51.94;97555.97;5012174;28;20053;-54
2023/07/31 03:59:48;;;;;;;3.45;2.00;;;16.30;72.10;;;17.84;51.85;97550.22;5013232;28;20037;-53
2023/07/31 04:02:16;;;;;;;5.45;3.20;;;16.30;72.10;;;17.90;51.59;97554.75;5013260;28;20498;-54
2023/07/31 04:04:43;;;;;;;4.45;2.10;;;16.40;71.70;;;17.92;51.72;97551.88;5005626;28;20034;-54
2023/07/31 04:07:11;;;;;;;5.82;2.80;;;16.40;71.70;;;17.95;51.55;97570.31;5012994;28;20459;-53
2023/07/31 04:09:39;;;;;;;5.70;2.05;;;16.40;71.30;;;18.00;51.35;97557.00;5012854;28;20034;-54
2023/07/31 04:12:07;;;;;;;5.72;1.90;;;16.40;71.10;;;17.98;51.13;97556.41;5011572;28;20057;-56
2023/07/31 04:14:34;;;;;;;4.78;1.73;;;16.40;70.90;;;18.01;51.33;97549.75;5011646;28;20386;-56
2023/07/31 04:17:02;;;;;;;5.20;2.03;;;16.50;70.80;;;18.02;51.31;97554.13;5013101;28;20402;-51
2023/07/31 04:19:29;;;;;;;3.78;2.20;;;16.40;70.90;;;18.05;51.09;97554.53;5012515;28;20050;-54
2023/07/31 04:21:57;;;;;;;4.15;2.17;;;16.50;70.90;;;18.10;51.15;97554.69;5012977;28;20053;-54
2023/07/31 04:24:24;;;;;;;3.60;2.17;;;16.50;70.30;;;18.14;51.10;97546.22;5012599;28;20049;-54
2023/07/31 04:26:53;;;;;;;4.00;2.10;;;16.60;70.50;;;18.20;50.85;97545.34;5012961;28;20485;-55
2023/07/31 04:29:20;;;;;;;6.70;1.90;;;16.60;69.70;;;18.25;50.80;97554.47;5012906;28;20053;-55
2023/07/31 04:31:48;;;;;;;3.17;1.80;;;16.70;70.00;;;18.24;50.69;97541.19;5012996;28;20070;-52
2023/07/31 04:34:16;;;;;;;4.93;2.10;;;16.60;69.50;;;18.22;50.63;97554.06;5012801;28;20046;-55
2023/07/31 04:36:44;;;;;;;3.00;2.00;;;16.60;69.70;;;18.22;50.67;97546.81;5012638;28;20490;-54
2023/07/31 04:39:11;;;;;;;4.25;2.10;;;16.70;69.80;;;18.25;50.80;97553.63;5011843;28;20058;-56
2023/07/31 04:41:39;;;;;;;4.30;2.00;;;16.70;69.90;;;18.27;50.96;97547.00;5011356;28;20513;-56
2023/07/31 04:44:06;;;;;;;6.57;2.92;;;16.70;70.00;;;18.30;50.82;97545.75;5012695;28;20049;-53
2023/07/31 04:46:34;;;;;;;3.67;2.00;;;16.70;69.80;;;18.32;50.80;97551.75;5011219;28;20417;-54
2023/07/31 04:49:02;;;;;;;3.67;2.30;;;16.70;70.10;;;18.32;50.85;97546.38;5012214;28;20042;-56
2023/07/31 04:51:30;;;;;;;3.88;1.92;;;16.70;70.10;;;18.35;50.79;97548.63;5012823;28;20407;-54
2023/07/31 04:53:58;;;;;;;3.72;2.20;;;16.70;70.30;;;18.34;50.83;97541.59;5010902;28;20500;-52
2023/07/31 04:56:25;;;;;;;2.17;1.63;;;16.80;70.30;;;18.33;50.96;97548.00;5012215;28;20406;-54
2023/07/31 04:58:53;;;;;;;6.60;2.13;;;16.70;70.30;;;18.30;50.76;97545.75;5012104;28;20506;-55
2023/07/31 05:01:20;;;;;;;3.65;2.05;;;16.70;70.20;;;18.30;50.91;97543.06;5012214;28;20050;-56
2023/07/31 05:03:48;;;;;;;2.92;1.60;;;16.70;70.30;;;18.32;50.90;97529.34;5004260;28;20054;-55
2023/07/31 05:06:16;;;;;;;3.03;1.63;;;16.70;70.10;;;18.28;50.92;97531.63;5012161;28;20382;-54
2023/07/31 05:08:43;;;;;;;5.22;2.35;;;16.70;70.30;;;18.26;50.89;97537.28;5010297;28;20521;-55
2023/07/31 05:11:11;;;;;;;4.50;2.40;;;16.70;70.30;;;18.24;51.04;97536.66;5012299;28;20501;-51
2023/07/31 05:13:39;;;;;;;3.17;2.30;;;16.70;70.20;;;18.25;51.17;97534.78;5011760;28;20045;-56
2023/07/31 05:16:07;;;;;;;4.18;2.40;;;16.70;70.40;;;18.33;51.09;97534.53;5012186;28;20048;-55
2023/07/31 05:18:34;;;;;;;3.72;2.05;;;16.80;70.30;;;18.31;51.11;97531.22;5011634;28;20042;-54
2023/07/31 05:21:02;;;;;;;3.53;2.17;;;16.80;70.40;;;18.36;51.14;97522.50;5011838;28;20044;-53
2023/07/31 05:23:32;;;;;;;3.00;1.80;;;16.80;70.30;;;18.33;51.05;97533.72;5012388;28;20052;-55
2023/07/31 05:26:05;;;;;;;6.57;2.20;;;16.80;70.50;;;18.37;51.17;97540.31;5011563;28;20038;-55
2023/07/31 05:28:35;;;;;;;5.18;2.33;;;16.80;70.40;;;18.38;51.23;97539.28;5011304;28;20489;-55
2023/07/31 05:31:04;;;;;;;4.47;2.42;;;16.80;70.60;;;18.38;51.24;97540.13;5011820;28;20061;-55
2023/07/31 05:33:32;;;;;;;3.63;2.17;;;16.80;70.80;;;18.42;51.19;97541.34;5010154;28;20053;-55
2023/07/31 05:36:00;;;;;;;3.17;1.98;;;16.90;70.60;;;18.48;51.09;97532.41;4994505;28;20498;-56
2023/07/31 05:38:28;;;;;;;6.22;2.20;;;17.00;70.40;;;18.52;51.16;97532.81;5011105;28;20049;-56
2023/07/31 05:40:55;;;;;;;3.50;1.75;;;17.00;70.10;;;18.52;51.03;97531.97;5011558;28;20042;-55
2023/07/31 05:43:23;;;;;;;4.72;1.83;;;17.00;70.00;;;18.38;51.20;97531.19;5010939;28;20054;-53
2023/07/31 05:45:51;;;;;;;6.20;2.05;;;16.90;70.30;;;18.36;51.29;97528.72;5011562;28;20057;-53
2023/07/31 05:48:18;;;;;;;5.28;2.58;;;16.90;70.10;;;18.47;51.05;97533.44;5011116;28;20049;-54
2023/07/31 05:50:46;;;;;;;2.95;1.48;;;17.00;69.80;;;18.53;50.95;97530.91;5011482;28;20497;-54
2023/07/31 05:53:14;;;;;;;2.47;1.73;;;17.10;69.40;;;18.57;50.68;97533.00;5011605;28;20053;-55
2023/07/31 05:55:42;;;;;;;4.80;2.28;;;17.10;68.90;;;18.57;50.75;97534.84;5010604;28;20053;-55
2023/07/31 05:58:09;;;;;;;6.05;2.15;;;17.20;68.60;;;18.57;50.68;97527.59;5011499;28;20048;-54
2023/07/31 06:00:37;;;;;;;3.63;1.90;;;17.20;68.80;;;18.64;50.68;97533.75;5011305;28;20057;-55
2023/07/31 06:03:04;;;;;;;4.53;2.03;;;17.20;68.20;;;18.69;50.33;97533.97;5011456;28;20508;-53
2023/07/31 06:05:32;;;;;;;4.55;2.05;;;17.30;68.10;;;18.73;50.42;97530.81;5013375;28;20046;-52
2023/07/31 06:08:00;;;;;;;3.80;2.53;;;17.30;68.10;;;18.78;50.50;97539.09;5014971;28;20042;-50
2023/07/31 06:10:28;;;;;;;5.07;2.47;;;17.40;68.50;;;18.85;50.40;97531.81;5015278;28;20431;-56
2023/07/31 06:12:57;;;;;;;4.88;2.70;;;17.50;67.90;;;18.82;50.41;97535.75;5007486;28;20038;-54
2023/07/31 06:15:25;;;;;;;4.38;2.08;;;17.50;67.70;;;18.89;50.34;97528.47;5015415;28;20042;-51
2023/07/31 06:17:52;;;;;;;3.33;1.55;;;17.60;67.60;;;19.00;50.41;97535.06;5014471;28;20042;-55
2023/07/31 06:20:22;;;;;;;5.50;2.70;;;17.70;67.70;;;19.11;49.98;97536.22;5015217;28;20050;-55
2023/07/31 06:22:49;;;;;;;3.55;2.10;;;17.90;66.60;;;19.15;49.65;97534.72;5013900;28;20042;-55
2023/07/31 06:25:17;;;;;;;6.05;2.25;;;17.90;65.60;;;19.30;49.97;97533.59;5015022;28;20410;-53
2023/07/31 06:27:45;;;;;;;4.78;2.30;;;18.10;66.40;;;19.40;49.65;97534.75;5014729;28;20046;-54
2023/07/31 06:30:12;;;;;;;3.58;1.90;;;18.20;66.00;;;19.51;49.48;97533.22;5015064;28;20046;-52
2023/07/31 06:32:40;;;;;;;3.85;2.42;;;18.30;64.70;;;19.59;49.11;97529.41;5014631;28;20053;-55
2023/07/31 06:35:08;;;;;;;4.95;3.15;;;18.40;64.60;;;19.66;49.09;97531.00;5014384;28;20045;-54
2023/07/31 06:37:36;;;;;;;3.50;2.17;;;18.50;64.60;;;19.72;49.13;97526.59;5014181;28;20046;-54
2023/07/31 06:40:07;;;;;;;4.47;2.15;;;18.60;64.00;;;19.82;48.75;97536.91;5014343;28;20076;-55
2023/07/31 06:42:35;;;;;;;3.25;1.92;;;18.60;62.70;;;19.87;48.62;97542.44;5014560;28;20482;-56
2023/07/31 06:45:03;;;;;;;3.63;2.10;;;18.70;63.70;;;19.96;48.47;97534.88;5014538;28;20046;-53
2023/07/31 06:47:31;;;;;;;4.40;2.42;;;18.80;63.60;;;20.08;48.41;97538.50;5013684;28;20046;-55
2023/07/31 06:49:59;;;;;;;7.35;2.72;;;18.90;63.70;;;20.17;48.71;97539.84;5003257;28;20034;-55
2023/07/31 06:52:27;;;;;;;3.55;1.85;;;19.00;63.10;;;20.24;48.15;97537.91;5014316;28;20054;-55
2023/07/31 06:55:18;;;;;;;3.00;2.20;;;19.10;63.00;;;20.27;47.79;97544.72;5013813;28;20498;-55
2023/07/31 06:57:51;;;;;;;3.75;2.30;;;19.10;61.10;;;20.28;47.45;97546.41;5012211;28;20046;-55
2023/07/31 07:00:21;;;;;;;3.90;1.85;;;19.10;61.60;;;20.27;47.74;97544.72;5015080;28;20054;-53
2023/07/31 07:02:49;;;;;;;4.82;2.08;;;19.20;61.70;;;20.23;47.62;97536.25;5013065;28;20050;-55
2023/07/31 07:05:18;;;;;;;5.93;2.28;;;19.10;61.10;;;20.33;47.71;97526.78;5013430;28;20049;-57
2023/07/31 07:07:46;;;;;;;4.03;2.08;;;19.20;61.50;;;20.42;47.37;97538.94;5012510;28;20057;-52
2023/07/31 07:10:13;;;;;;;4.93;2.42;;;19.30;61.00;;;20.45;46.92;97533.06;5014305;28;20042;-55
2023/07/31 07:12:41;;;;;;;3.65;2.15;;;19.30;60.50;;;20.52;47.03;97528.41;5014147;28;20058;-54
2023/07/31 07:15:09;;;;;;;4.30;2.15;;;19.40;60.30;;;20.51;47.04;97517.81;5013760;28;20038;-52
2023/07/31 07:17:37;;;;;;;2.83;1.80;;;19.40;60.10;;;20.56;46.89;97517.97;5013732;28;20529;-51
2023/07/31 07:20:06;;;;;;;5.90;2.90;;;19.40;60.20;;;20.54;46.57;97512.78;5013740;28;20421;-55
2023/07/31 07:22:33;;;;;;;3.40;1.80;;;19.40;59.80;;;20.53;46.28;97513.00;5014107;28;20054;-53
2023/07/31 07:25:01;;;;;;;3.85;2.30;;;19.40;59.50;;;20.55;46.73;97524.41;5013878;28;20053;-54
2023/07/31 07:27:28;;;;;;;3.45;2.08;;;19.40;60.00;;;20.57;46.54;97520.44;4996652;28;20057;-54
2023/07/31 07:29:56;;;;;;;3.80;1.90;;;19.50;59.90;;;20.61;46.19;97518.16;5013517;28;20060;-57
2023/07/31 07:32:24;;;;;;;5.00;2.25;;;19.50;59.30;;;20.62;46.39;97517.06;5013988;28;20046;-53
2023/07/31 07:34:51;;;;;;;2.95;2.10;;;19.50;58.90;;;20.70;46.14;97521.34;5013783;28;20046;-52
2023/07/31 07:37:19;;;;;;;4.25;2.10;;;19.50;59.80;;;20.70;46.04;97503.22;5013518;28;20046;-55
2023/07/31 07:39:47;;;;;;;4.32;2.63;;;19.50;59.30;;;20.80;45.96;97513.50;5013348;28;20049;-52
2023/07/31 07:42:14;;;;;;;3.95;2.42;;;19.60;58.80;;;20.74;45.64;97509.81;5012557;28;20048;-51
2023/07/31 07:44:42;;;;;;;3.28;2.10;;;19.60;58.10;;;20.74;45.78;97517.94;5013674;28;20046;-54
2023/07/31 07:47:09;;;;;;;5.93;2.50;;;19.60;58.40;;;20.76;45.89;97509.59;5013472;28;20034;-52
2023/07/31 07:49:37;;;;;;;5.70;2.53;;;19.70;58.50;;;20.89;45.87;97505.91;5011830;28;20046;-53
2023/07/31 07:52:05;;;;;;;2.83;2.10;;;19.70;58.80;;;21.02;45.65;97511.13;5004667;28;20045;-53
2023/07/31 07:54:32;;;;;;;4.13;2.40;;;19.90;59.10;;;21.09;45.48;97508.28;5012906;28;20050;-56
2023/07/31 07:57:00;;;;;;;4.25;2.42;;;20.00;58.10;;;21.21;45.63;97512.69;5013289;28;20042;-53
2023/07/31 07:59:28;;;;;;;4.30;2.33;;;20.20;58.10;;;21.28;45.76;97507.16;5013032;28;20046;-51
2023/07/31 08:01:57;;;;;;;4.45;2.40;;;20.20;57.80;;;21.33;45.45;97496.44;5013360;28;20073;-56
2023/07/31 08:04:24;;;;;;;5.32;2.35;;;20.30;57.20;;;21.42;44.75;97505.03;5013303;28;20056;-55
2023/07/31 08:06:52;;;;;;;4.65;2.53;;;20.40;57.20;;;21.52;45.42;97497.22;5012917;28;20418;-51
2023/07/31 08:09:20;;;;;;;3.00;2.05;;;20.50;57.80;;;21.64;45.36;97502.63;5012760;28;20046;-51
2023/07/31 08:11:47;;;;;;;3.72;2.67;;;20.60;57.30;;;21.60;44.67;97498.75;5011846;28;20050;-52
2023/07/31 08:14:15;;;;;;;4.28;2.20;;;20.60;56.40;;;21.70;44.79;97498.97;5012958;28;20398;-49
2023/07/31 08:16:42;;;;;;;4.75;2.25;;;20.60;57.20;;;21.67;44.57;97499.44;5013013;28;20512;-49
2023/07/31 08:19:10;;;;;;;10.88;2.55;;;20.60;55.90;;;21.67;44.13;97498.63;5011504;28;20046;-52
2023/07/31 08:21:38;;;;;;;3.70;2.00;;;20.60;55.00;;;21.69;44.22;97496.50;5013099;28;20516;-50
2023/07/31 08:24:07;;;;;;;6.10;2.80;;;20.60;56.50;;;21.70;43.83;97488.13;5012834;28;20414;-51
2023/07/31 08:26:35;;;;;;;4.30;2.13;;;20.60;55.70;;;21.81;44.25;97489.19;5012094;28;20060;-53
2023/07/31 08:29:03;;;;;;;4.75;2.97;;;20.70;56.20;;;21.75;44.59;97487.41;5011062;28;20049;-53
2023/07/31 08:31:30;;;;;;;7.15;2.58;;;20.60;56.10;;;21.86;44.16;97491.19;5012807;28;20053;-53
2023/07/31 08:33:58;;;;;;;5.75;2.30;;;20.70;56.00;;;21.87;44.40;97476.56;5012773;28;20046;-49
2023/07/31 08:36:26;;;;;;;4.95;2.28;;;20.70;56.20;;;21.87;43.91;97488.25;5012862;28;20056;-52
2023/07/31 08:38:57;;;;;;;7.90;2.65;;;20.70;56.20;;;21.86;44.42;97491.19;5012060;28;20053;-50
2023/07/31 08:41:25;;;;;;;4.53;2.60;;;20.70;56.30;;;21.92;44.09;97474.78;5012599;28;20061;-51
2023/07/31 08:43:55;;;;;;;5.72;2.20;;;20.70;56.40;;;21.92;44.24;97482.91;5012424;28;20054;-50
2023/07/31 08:46:23;;;;;;;3.65;2.28;;;20.70;55.90;;;21.94;43.56;97483.50;5012483;28;20053;-54
2023/07/31 08:48:52;;;;;;;4.90;2.30;;;20.80;54.30;;;21.87;42.79;97481.97;5010879;28;20441;-51
2023/07/31 08:51:20;;;;;;;4.47;2.35;;;20.70;54.20;;;21.96;43.41;97483.28;5011334;28;20038;-49
2023/07/31 08:53:47;;;;;;;5.68;2.33;;;20.70;55.20;;;22.01;43.45;97478.78;5003213;28;20053;-50
2023/07/31 08:56:17;;;;;;;5.70;2.80;;;20.80;54.90;;;22.06;43.21;97474.53;5004572;28;20049;-52
2023/07/31 08:58:46;;;;;;;3.88;2.63;;;20.80;55.40;;;22.08;43.05;97473.25;5005505;28;20050;-53
2023/07/31 09:01:14;;;;;;;3.22;2.42;;;20.90;54.70;;;22.07;43.46;97465.34;5005711;28;20051;-54
2023/07/31 09:03:45;;;;;;;5.90;3.05;;;20.90;54.50;;;22.11;42.95;97452.97;5006307;28;20053;-53
2023/07/31 09:06:13;;;;;;;4.30;2.40;;;20.90;54.50;;;22.10;43.18;97449.44;5004705;28;20045;-53
2023/07/31 09:08:42;;;;;;;4.57;2.58;;;20.90;55.00;;;22.18;43.22;97459.06;5005214;28;20041;-52
2023/07/31 09:11:10;;;;;;;4.85;2.97;;;21.00;54.30;;;22.30;43.06;97459.06;5007223;28;20050;-53
2023/07/31 09:13:40;;;;;;;4.82;2.80;;;21.10;54.00;;;22.29;43.12;97465.53;5007007;28;20046;-53
2023/07/31 09:16:10;;;;;;;4.05;2.53;;;21.20;54.60;;;22.30;42.89;97465.31;5004178;28;20037;-52
2023/07/31 09:18:56;;;;;;;5.38;2.45;;;21.20;53.90;;;22.36;42.82;97460.81;5001237;28;20050;-52
2023/07/31 09:21:25;;;;;;;5.55;2.28;;;21.20;53.70;;;22.41;43.06;97456.31;5005737;28;20069;-52
2023/07/31 09:23:54;;;;;;;4.43;2.35;;;21.30;54.30;;;22.48;43.17;97449.91;5002035;28;20393;-53
2023/07/31 09:26:36;;;;;;;5.15;2.50;;;21.30;53.50;;;22.55;42.64;97454.13;5001784;28;20430;-53
2023/07/31 09:29:07;;;;;;;3.88;2.40;;;21.40;53.10;;;22.58;42.71;97452.81;5009448;28;20517;-49
2023/07/31 09:31:43;;;;;;;6.38;2.88;;;21.30;54.00;;;22.61;42.98;97452.34;5011788;28;20053;-51
2023/07/31 09:34:11;;;;;;;5.75;2.42;;;21.40;54.20;;;22.70;42.39;97439.19;5010168;28;20042;-54
2023/07/31 09:36:47;;;;;;;4.88;2.58;;;21.50;54.00;;;22.69;42.30;97443.78;5011749;28;20042;-54
2023/07/31 09:39:17;;;;;;;4.97;2.50;;;21.50;53.00;;;22.66;42.37;97444.28;5003287;28;20045;-55
2023/07/31 09:41:55;;;;;;;5.43;2.53;;;21.50;53.70;;;22.72;42.29;97428.91;5011702;28;20044;-52
2023/07/31 09:44:40;;;;;;;4.43;2.40;;;21.40;53.30;;;22.73;42.28;97422.44;5010614;28;20528;-53
2023/07/31 09:47:23;;;;;;;4.22;2.60;;;21.50;52.80;;;22.68;42.39;97419.63;5011298;28;20056;-51
2023/07/31 09:49:52;;;;;;;5.95;2.33;;;21.50;53.30;;;22.69;42.31;97424.81;5007261;28;20056;-51
2023/07/31 09:52:20;;;;;;;4.90;2.72;;;21.50;53.80;;;22.74;42.28;97414.06;5010315;28;20038;-54
2023/07/31 09:54:48;;;;;;;8.35;2.97;;;21.50;53.70;;;22.78;42.18;97417.09;5011496;28;20046;-48
2023/07/31 09:57:17;;;;;;;6.43;3.00;;;21.60;52.70;;;22.83;41.83;97419.06;5011294;28;20490;-50
2023/07/31 09:59:48;;;;;;;4.95;2.85;;;21.50;52.30;;;22.80;41.41;97414.97;5011316;28;20042;-51
2023/07/31 10:02:22;;;;;;;5.32;3.35;;;21.50;52.20;;;22.86;41.69;97413.97;5010258;28;20526;-61
2023/07/31 10:04:51;;;;;;;5.88;2.90;;;21.60;52.70;;;22.95;41.95;97420.66;5011487;28;20057;-61
2023/07/31 10:07:22;;;;;;;4.13;2.53;;;21.80;52.80;;;23.07;41.49;97406.19;5002457;28;20065;-61
2023/07/31 10:09:53;;;;;;;4.80;3.00;;;22.00;52.20;;;23.12;41.74;97398.94;5009981;28;20494;-60
2023/07/31 10:12:25;;;;;;;3.70;2.13;;;22.10;52.20;;;23.20;41.46;97394.97;4994111;28;20038;-60
2023/07/31 10:14:55;;;;;;;4.82;2.75;;;22.20;51.20;;;23.19;40.79;97396.88;5010345;28;20053;-52
2023/07/31 10:17:23;;;;;;;4.25;2.45;;;22.30;50.30;;;23.30;39.96;97406.03;5011112;28;20038;-53
2023/07/31 10:19:52;;;;;;;5.50;2.58;;;22.40;49.20;;;23.42;40.45;97403.19;5011234;28;20505;-53
2023/07/31 10:22:21;;;;;;;4.75;2.83;;;22.50;48.90;;;23.42;40.24;97389.63;5009783;28;20425;-54
2023/07/31 10:24:52;;;;;;;5.90;2.58;;;22.50;49.50;;;23.30;39.54;97388.88;5009958;28;20045;-56
2023/07/31 10:27:20;;;;;;;4.95;2.50;;;22.40;48.30;;;23.27;39.54;97387.50;5002054;28;20046;-57